sensor_id;sensor_type;location;lat;lon;timestamp;temperature;humidity
7658;DHT22;8462;53.156;8.220;2023-04-03T00:00:50;3.70;82.80
7658;DHT22;8462;53.156;8.220;2023-04-03T00:03:17;3.60;83.00
7658;DHT22;8462;53.156;8.220;2023-04-03T00:05:46;3.60;83.20
7658;DHT22;8462;53.156;8.220;2023-04-03T00:08:13;3.60;83.80
7658;DHT22;8462;53.156;8.220;2023-04-03T00:10:40;3.60;83.70
7658;DHT22;8462;53.156;8.220;2023-04-03T00:13:07;3.50;83.80
7658;DHT22;8462;53.156;8.220;2023-04-03T00:15:36;3.50;84.10
7658;DHT22;8462;53.156;8.220;2023-04-03T00:18:03;3.50;85.20
7658;DHT22;8462;53.156;8.220;2023-04-03T00:20:30;3.50;84.50
7658;DHT22;8462;53.156;8.220;2023-04-03T00:22:59;3.50;84.70
7658;DHT22;8462;53.156;8.220;2023-04-03T00:25:26;3.40;85.00
7658;DHT22;8462;53.156;8.220;2023-04-03T00:27:53;3.40;85.30
7658;DHT22;8462;53.156;8.220;2023-04-03T00:30:21;3.40;85.40
7658;DHT22;8462;53.156;8.220;2023-04-03T00:32:50;3.30;85.80
7658;DHT22;8462;53.156;8.220;2023-04-03T00:35:17;3.30;85.90
7658;DHT22;8462;53.156;8.220;2023-04-03T00:37:46;3.30;86.30
7658;DHT22;8462;53.156;8.220;2023-04-03T00:40:15;3.30;86.40
7658;DHT22;8462;53.156;8.220;2023-04-03T00:42:43;3.30;86.60
7658;DHT22;8462;53.156;8.220;2023-04-03T00:45:30;3.20;86.80
7658;DHT22;8462;53.156;8.220;2023-04-03T00:47:57;3.20;87.00
7658;DHT22;8462;53.156;8.220;2023-04-03T00:50:26;3.20;87.10
7658;DHT22;8462;53.156;8.220;2023-04-03T00:52:54;3.20;87.20
7658;DHT22;8462;53.156;8.220;2023-04-03T00:55:23;3.20;87.40
7658;DHT22;8462;53.156;8.220;2023-04-03T00:57:51;3.20;87.40
7658;DHT22;8462;53.156;8.220;2023-04-03T01:00:20;3.20;87.60
7658;DHT22;8462;53.156;8.220;2023-04-03T01:02:48;3.20;87.50
7658;DHT22;8462;53.156;8.220;2023-04-03T01:05:16;3.20;87.30
7658;DHT22;8462;53.156;8.220;2023-04-03T01:07:44;3.20;87.20
7658;DHT22;8462;53.156;8.220;2023-04-03T01:10:14;3.20;87.30
7658;DHT22;8462;53.156;8.220;2023-04-03T01:12:44;3.20;87.40
7658;DHT22;8462;53.156;8.220;2023-04-03T01:15:13;3.20;87.50
7658;DHT22;8462;53.156;8.220;2023-04-03T01:17:43;3.10;87.60
7658;DHT22;8462;53.156;8.220;2023-04-03T01:23:27;3.00;88.40
7658;DHT22;8462;53.156;8.220;2023-04-03T01:25:57;2.90;89.20
7658;DHT22;8462;53.156;8.220;2023-04-03T01:28:27;2.90;89.30
7658;DHT22;8462;53.156;8.220;2023-04-03T01:31:00;2.90;89.90
7658;DHT22;8462;53.156;8.220;2023-04-03T01:33:32;2.80;90.00
7658;DHT22;8462;53.156;8.220;2023-04-03T01:35:59;2.80;90.10
7658;DHT22;8462;53.156;8.220;2023-04-03T01:38:27;2.80;90.20
7658;DHT22;8462;53.156;8.220;2023-04-03T01:40:54;2.80;90.20
7658;DHT22;8462;53.156;8.220;2023-04-03T01:43:21;2.80;90.40
7658;DHT22;8462;53.156;8.220;2023-04-03T01:45:48;2.80;90.40
7658;DHT22;8462;53.156;8.220;2023-04-03T01:48:17;2.80;90.50
7658;DHT22;8462;53.156;8.220;2023-04-03T01:50:47;2.70;90.60
7658;DHT22;8462;53.156;8.220;2023-04-03T01:53:15;2.70;90.70
7658;DHT22;8462;53.156;8.220;2023-04-03T01:55:42;2.70;90.70
7658;DHT22;8462;53.156;8.220;2023-04-03T01:58:09;2.70;90.70
7658;DHT22;8462;53.156;8.220;2023-04-03T02:00:35;2.70;90.80
7658;DHT22;8462;53.156;8.220;2023-04-03T02:03:03;2.70;90.90
7658;DHT22;8462;53.156;8.220;2023-04-03T02:05:30;2.60;90.90
7658;DHT22;8462;53.156;8.220;2023-04-03T02:07:58;2.60;90.90
7658;DHT22;8462;53.156;8.220;2023-04-03T02:10:26;2.60;90.90
7658;DHT22;8462;53.156;8.220;2023-04-03T02:12:52;2.60;91.00
7658;DHT22;8462;53.156;8.220;2023-04-03T02:15:19;2.60;91.00
7658;DHT22;8462;53.156;8.220;2023-04-03T02:17:47;2.60;91.10
7658;DHT22;8462;53.156;8.220;2023-04-03T02:20:13;2.60;91.20
7658;DHT22;8462;53.156;8.220;2023-04-03T02:22:40;2.60;91.20
7658;DHT22;8462;53.156;8.220;2023-04-03T02:25:09;2.50;91.30
7658;DHT22;8462;53.156;8.220;2023-04-03T02:27:36;2.50;91.30
7658;DHT22;8462;53.156;8.220;2023-04-03T02:30:04;2.50;91.40
7658;DHT22;8462;53.156;8.220;2023-04-03T02:32:32;2.50;91.50
7658;DHT22;8462;53.156;8.220;2023-04-03T02:34:59;2.40;91.60
7658;DHT22;8462;53.156;8.220;2023-04-03T02:37:26;2.40;91.70
7658;DHT22;8462;53.156;8.220;2023-04-03T02:39:54;2.40;91.80
7658;DHT22;8462;53.156;8.220;2023-04-03T02:42:23;2.30;92.00
7658;DHT22;8462;53.156;8.220;2023-04-03T02:44:51;2.30;92.10
7658;DHT22;8462;53.156;8.220;2023-04-03T02:47:17;2.30;92.20
7658;DHT22;8462;53.156;8.220;2023-04-03T02:49:44;2.30;92.30
7658;DHT22;8462;53.156;8.220;2023-04-03T02:52:11;2.30;92.40
7658;DHT22;8462;53.156;8.220;2023-04-03T02:54:38;2.20;92.50
7658;DHT22;8462;53.156;8.220;2023-04-03T02:57:08;2.20;92.50
7658;DHT22;8462;53.156;8.220;2023-04-03T02:59:36;2.20;92.50
7658;DHT22;8462;53.156;8.220;2023-04-03T03:02:06;2.20;92.50
7658;DHT22;8462;53.156;8.220;2023-04-03T03:04:33;2.20;92.70
7658;DHT22;8462;53.156;8.220;2023-04-03T03:07:00;2.20;92.70
7658;DHT22;8462;53.156;8.220;2023-04-03T03:09:28;2.20;92.80
7658;DHT22;8462;53.156;8.220;2023-04-03T03:11:55;2.20;92.90
7658;DHT22;8462;53.156;8.220;2023-04-03T03:14:22;2.20;92.90
7658;DHT22;8462;53.156;8.220;2023-04-03T03:16:50;2.20;93.00
7658;DHT22;8462;53.156;8.220;2023-04-03T03:19:17;2.20;93.00
7658;DHT22;8462;53.156;8.220;2023-04-03T03:21:44;2.20;93.00
7658;DHT22;8462;53.156;8.220;2023-04-03T03:24:11;2.20;93.10
7658;DHT22;8462;53.156;8.220;2023-04-03T03:26:37;2.20;93.20
7658;DHT22;8462;53.156;8.220;2023-04-03T03:29:04;2.20;93.20
7658;DHT22;8462;53.156;8.220;2023-04-03T03:31:32;2.10;93.20
7658;DHT22;8462;53.156;8.220;2023-04-03T03:34:00;2.20;93.30
7658;DHT22;8462;53.156;8.220;2023-04-03T03:36:27;2.20;93.30
7658;DHT22;8462;53.156;8.220;2023-04-03T03:38:54;2.10;93.80
7658;DHT22;8462;53.156;8.220;2023-04-03T03:41:20;2.10;93.40
7658;DHT22;8462;53.156;8.220;2023-04-03T03:43:47;2.20;93.40
7658;DHT22;8462;53.156;8.220;2023-04-03T03:46:15;2.20;93.30
7658;DHT22;8462;53.156;8.220;2023-04-03T03:48:43;2.20;93.50
7658;DHT22;8462;53.156;8.220;2023-04-03T03:51:11;2.20;93.50
7658;DHT22;8462;53.156;8.220;2023-04-03T03:53:39;2.20;93.50
7658;DHT22;8462;53.156;8.220;2023-04-03T03:56:09;2.20;93.40
7658;DHT22;8462;53.156;8.220;2023-04-03T03:58:38;2.10;93.50
7658;DHT22;8462;53.156;8.220;2023-04-03T04:01:06;2.20;93.50
7658;DHT22;8462;53.156;8.220;2023-04-03T04:03:39;2.10;93.50
7658;DHT22;8462;53.156;8.220;2023-04-03T04:06:07;2.10;93.40
7658;DHT22;8462;53.156;8.220;2023-04-03T04:08:36;2.20;93.40
7658;DHT22;8462;53.156;8.220;2023-04-03T04:11:06;2.10;93.50
7658;DHT22;8462;53.156;8.220;2023-04-03T04:13:33;2.10;93.50
7658;DHT22;8462;53.156;8.220;2023-04-03T04:16:00;2.20;93.60
7658;DHT22;8462;53.156;8.220;2023-04-03T04:18:28;2.10;93.60
7658;DHT22;8462;53.156;8.220;2023-04-03T04:20:55;2.10;93.70
7658;DHT22;8462;53.156;8.220;2023-04-03T04:23:22;2.10;93.70
7658;DHT22;8462;53.156;8.220;2023-04-03T04:25:52;2.10;93.80
7658;DHT22;8462;53.156;8.220;2023-04-03T04:28:19;2.10;93.80
7658;DHT22;8462;53.156;8.220;2023-04-03T04:30:49;2.10;93.80
7658;DHT22;8462;53.156;8.220;2023-04-03T04:33:18;2.10;93.80
7658;DHT22;8462;53.156;8.220;2023-04-03T04:35:47;2.10;93.80
7658;DHT22;8462;53.156;8.220;2023-04-03T04:38:15;2.10;93.80
7658;DHT22;8462;53.156;8.220;2023-04-03T04:40:42;2.10;93.80
7658;DHT22;8462;53.156;8.220;2023-04-03T04:43:11;2.10;93.90
7658;DHT22;8462;53.156;8.220;2023-04-03T04:45:40;2.10;93.90
7658;DHT22;8462;53.156;8.220;2023-04-03T04:48:08;2.10;93.90
7658;DHT22;8462;53.156;8.220;2023-04-03T04:50:36;2.10;93.80
7658;DHT22;8462;53.156;8.220;2023-04-03T04:53:03;2.10;93.80
7658;DHT22;8462;53.156;8.220;2023-04-03T04:55:30;2.20;93.70
7658;DHT22;8462;53.156;8.220;2023-04-03T04:57:58;2.20;93.70
7658;DHT22;8462;53.156;8.220;2023-04-03T05:00:26;2.20;93.60
7658;DHT22;8462;53.156;8.220;2023-04-03T05:02:53;2.20;93.60
7658;DHT22;8462;53.156;8.220;2023-04-03T05:05:21;2.20;93.70
7658;DHT22;8462;53.156;8.220;2023-04-03T05:07:48;2.20;93.70
7658;DHT22;8462;53.156;8.220;2023-04-03T05:10:16;2.20;93.70
7658;DHT22;8462;53.156;8.220;2023-04-03T05:12:45;2.20;93.70
7658;DHT22;8462;53.156;8.220;2023-04-03T05:15:12;2.20;93.70
7658;DHT22;8462;53.156;8.220;2023-04-03T05:17:40;2.30;93.80
7658;DHT22;8462;53.156;8.220;2023-04-03T05:20:11;2.30;93.80
7658;DHT22;8462;53.156;8.220;2023-04-03T05:22:39;2.40;93.80
7658;DHT22;8462;53.156;8.220;2023-04-03T05:25:09;2.50;94.00
7658;DHT22;8462;53.156;8.220;2023-04-03T05:27:37;2.80;95.10
7658;DHT22;8462;53.156;8.220;2023-04-03T05:30:04;3.40;95.40
7658;DHT22;8462;53.156;8.220;2023-04-03T05:32:35;4.10;92.60
7658;DHT22;8462;53.156;8.220;2023-04-03T05:35:13;4.90;89.20
7658;DHT22;8462;53.156;8.220;2023-04-03T05:37:41;5.70;84.60
7658;DHT22;8462;53.156;8.220;2023-04-03T05:40:09;6.30;82.00
7658;DHT22;8462;53.156;8.220;2023-04-03T05:42:39;7.00;78.30
7658;DHT22;8462;53.156;8.220;2023-04-03T05:45:07;7.60;75.70
7658;DHT22;8462;53.156;8.220;2023-04-03T05:47:34;8.10;72.90
7658;DHT22;8462;53.156;8.220;2023-04-03T05:50:01;8.50;70.50
7658;DHT22;8462;53.156;8.220;2023-04-03T05:52:31;8.90;68.40
7658;DHT22;8462;53.156;8.220;2023-04-03T05:55:00;9.20;67.20
7658;DHT22;8462;53.156;8.220;2023-04-03T05:57:29;9.60;66.00
7658;DHT22;8462;53.156;8.220;2023-04-03T05:59:56;10.00;65.10
7658;DHT22;8462;53.156;8.220;2023-04-03T06:02:24;10.40;63.30
7658;DHT22;8462;53.156;8.220;2023-04-03T06:04:52;10.80;62.30
7658;DHT22;8462;53.156;8.220;2023-04-03T06:07:21;11.10;59.60
7658;DHT22;8462;53.156;8.220;2023-04-03T06:09:51;11.30;59.20
7658;DHT22;8462;53.156;8.220;2023-04-03T06:12:19;11.40;59.10
7658;DHT22;8462;53.156;8.220;2023-04-03T06:14:46;11.60;56.80
7658;DHT22;8462;53.156;8.220;2023-04-03T06:17:14;11.70;57.00
7658;DHT22;8462;53.156;8.220;2023-04-03T06:19:41;11.80;55.30
7658;DHT22;8462;53.156;8.220;2023-04-03T06:22:09;11.90;55.60
7658;DHT22;8462;53.156;8.220;2023-04-03T06:24:37;12.00;55.50
7658;DHT22;8462;53.156;8.220;2023-04-03T06:27:08;12.20;54.20
7658;DHT22;8462;53.156;8.220;2023-04-03T06:29:36;12.40;54.30
7658;DHT22;8462;53.156;8.220;2023-04-03T06:32:04;12.50;53.90
7658;DHT22;8462;53.156;8.220;2023-04-03T06:34:31;12.70;52.90
7658;DHT22;8462;53.156;8.220;2023-04-03T06:36:58;12.80;52.20
7658;DHT22;8462;53.156;8.220;2023-04-03T06:39:25;13.00;52.40
7658;DHT22;8462;53.156;8.220;2023-04-03T06:41:52;13.20;51.70
7658;DHT22;8462;53.156;8.220;2023-04-03T06:44:29;13.30;50.80
7658;DHT22;8462;53.156;8.220;2023-04-03T06:46:56;13.40;49.70
7658;DHT22;8462;53.156;8.220;2023-04-03T06:49:23;13.50;51.10
7658;DHT22;8462;53.156;8.220;2023-04-03T06:51:50;13.60;49.60
7658;DHT22;8462;53.156;8.220;2023-04-03T06:54:18;13.80;50.20
7658;DHT22;8462;53.156;8.220;2023-04-03T06:56:46;13.90;47.30
7658;DHT22;8462;53.156;8.220;2023-04-03T06:59:13;13.80;49.20
7658;DHT22;8462;53.156;8.220;2023-04-03T07:01:41;13.80;48.10
7658;DHT22;8462;53.156;8.220;2023-04-03T07:04:08;13.80;48.70
7658;DHT22;8462;53.156;8.220;2023-04-03T07:06:35;13.60;48.20
7658;DHT22;8462;53.156;8.220;2023-04-03T07:09:03;13.50;48.70
7658;DHT22;8462;53.156;8.220;2023-04-03T07:11:29;13.60;49.20
7658;DHT22;8462;53.156;8.220;2023-04-03T07:13:57;13.70;49.20
7658;DHT22;8462;53.156;8.220;2023-04-03T07:16:24;13.80;47.60
7658;DHT22;8462;53.156;8.220;2023-04-03T07:18:52;13.60;48.20
7658;DHT22;8462;53.156;8.220;2023-04-03T07:21:19;13.60;47.60
7658;DHT22;8462;53.156;8.220;2023-04-03T07:23:46;13.30;48.20
7658;DHT22;8462;53.156;8.220;2023-04-03T07:26:13;13.40;48.90
7658;DHT22;8462;53.156;8.220;2023-04-03T07:28:40;13.50;49.60
7658;DHT22;8462;53.156;8.220;2023-04-03T07:31:10;13.50;47.90
7658;DHT22;8462;53.156;8.220;2023-04-03T07:33:39;13.50;48.20
7658;DHT22;8462;53.156;8.220;2023-04-03T07:36:09;13.40;48.10
7658;DHT22;8462;53.156;8.220;2023-04-03T07:38:36;13.50;48.70
7658;DHT22;8462;53.156;8.220;2023-04-03T07:41:04;13.40;48.10
7658;DHT22;8462;53.156;8.220;2023-04-03T07:43:31;13.20;49.30
7658;DHT22;8462;53.156;8.220;2023-04-03T07:45:58;13.40;47.90
7658;DHT22;8462;53.156;8.220;2023-04-03T07:48:26;13.40;47.80
7658;DHT22;8462;53.156;8.220;2023-04-03T07:50:53;12.80;47.80
7658;DHT22;8462;53.156;8.220;2023-04-03T07:53:21;12.20;49.00
7658;DHT22;8462;53.156;8.220;2023-04-03T07:55:49;11.40;52.10
7658;DHT22;8462;53.156;8.220;2023-04-03T07:58:21;10.90;52.30
7658;DHT22;8462;53.156;8.220;2023-04-03T08:00:48;10.20;54.70
7658;DHT22;8462;53.156;8.220;2023-04-03T08:03:15;9.50;57.70
7658;DHT22;8462;53.156;8.220;2023-04-03T08:05:44;9.20;59.00
7658;DHT22;8462;53.156;8.220;2023-04-03T08:08:13;8.80;59.40
7658;DHT22;8462;53.156;8.220;2023-04-03T08:10:42;8.40;60.60
7658;DHT22;8462;53.156;8.220;2023-04-03T08:13:11;8.30;62.10
7658;DHT22;8462;53.156;8.220;2023-04-03T08:15:38;8.30;62.30
7658;DHT22;8462;53.156;8.220;2023-04-03T08:18:05;8.30;63.90
7658;DHT22;8462;53.156;8.220;2023-04-03T08:20:32;8.30;63.00
7658;DHT22;8462;53.156;8.220;2023-04-03T08:22:59;8.20;63.60
7658;DHT22;8462;53.156;8.220;2023-04-03T08:25:26;8.30;64.30
7658;DHT22;8462;53.156;8.220;2023-04-03T08:27:56;8.30;63.30
7658;DHT22;8462;53.156;8.220;2023-04-03T08:30:23;8.40;63.10
7658;DHT22;8462;53.156;8.220;2023-04-03T08:32:50;8.40;62.20
7658;DHT22;8462;53.156;8.220;2023-04-03T08:35:18;8.50;62.80
7658;DHT22;8462;53.156;8.220;2023-04-03T08:37:46;8.60;62.70
7658;DHT22;8462;53.156;8.220;2023-04-03T08:40:15;8.70;62.10
7658;DHT22;8462;53.156;8.220;2023-04-03T08:42:51;8.80;60.30
7658;DHT22;8462;53.156;8.220;2023-04-03T08:45:27;8.90;60.50
7658;DHT22;8462;53.156;8.220;2023-04-03T08:48:00;9.00;60.50
7658;DHT22;8462;53.156;8.220;2023-04-03T08:50:36;9.20;60.70
7658;DHT22;8462;53.156;8.220;2023-04-03T08:53:06;9.50;57.80
7658;DHT22;8462;53.156;8.220;2023-04-03T08:55:40;9.80;54.60
7658;DHT22;8462;53.156;8.220;2023-04-03T08:58:13;10.00;53.40
7658;DHT22;8462;53.156;8.220;2023-04-03T09:00:45;10.10;51.00
7658;DHT22;8462;53.156;8.220;2023-04-03T09:03:14;10.40;48.70
7658;DHT22;8462;53.156;8.220;2023-04-03T09:05:45;10.40;48.30
7658;DHT22;8462;53.156;8.220;2023-04-03T09:08:21;10.40;48.70
7658;DHT22;8462;53.156;8.220;2023-04-03T09:10:49;10.50;48.70
7658;DHT22;8462;53.156;8.220;2023-04-03T09:13:24;10.50;47.20
7658;DHT22;8462;53.156;8.220;2023-04-03T09:15:56;10.50;47.80
7658;DHT22;8462;53.156;8.220;2023-04-03T09:18:28;10.60;49.00
7658;DHT22;8462;53.156;8.220;2023-04-03T09:21:02;10.80;49.60
7658;DHT22;8462;53.156;8.220;2023-04-03T09:23:34;11.10;47.20
7658;DHT22;8462;53.156;8.220;2023-04-03T09:26:07;11.20;45.30
7658;DHT22;8462;53.156;8.220;2023-04-03T09:28:38;11.00;46.10
7658;DHT22;8462;53.156;8.220;2023-04-03T09:31:19;11.00;45.30
7658;DHT22;8462;53.156;8.220;2023-04-03T09:33:47;11.10;45.70
7658;DHT22;8462;53.156;8.220;2023-04-03T09:36:39;11.20;44.10
7658;DHT22;8462;53.156;8.220;2023-04-03T09:39:11;11.00;43.60
7658;DHT22;8462;53.156;8.220;2023-04-03T09:41:38;11.20;41.40
7658;DHT22;8462;53.156;8.220;2023-04-03T09:44:21;11.20;41.10
7658;DHT22;8462;53.156;8.220;2023-04-03T09:46:49;11.30;40.10
7658;DHT22;8462;53.156;8.220;2023-04-03T09:49:17;11.20;41.00
7658;DHT22;8462;53.156;8.220;2023-04-03T09:51:46;11.20;41.90
7658;DHT22;8462;53.156;8.220;2023-04-03T09:54:31;11.20;41.10
7658;DHT22;8462;53.156;8.220;2023-04-03T09:57:01;11.30;41.30
7658;DHT22;8462;53.156;8.220;2023-04-03T09:59:31;11.30;41.20
7658;DHT22;8462;53.156;8.220;2023-04-03T10:02:00;11.40;41.00
7658;DHT22;8462;53.156;8.220;2023-04-03T10:04:38;11.40;42.40
7658;DHT22;8462;53.156;8.220;2023-04-03T10:07:26;11.40;41.20
7658;DHT22;8462;53.156;8.220;2023-04-03T10:09:55;11.40;42.10
7658;DHT22;8462;53.156;8.220;2023-04-03T10:12:23;11.40;41.90
7658;DHT22;8462;53.156;8.220;2023-04-03T10:14:58;11.40;41.30
7658;DHT22;8462;53.156;8.220;2023-04-03T10:17:46;11.30;42.10
7658;DHT22;8462;53.156;8.220;2023-04-03T10:20:26;11.30;42.90
7658;DHT22;8462;53.156;8.220;2023-04-03T10:23:02;11.50;42.70
7658;DHT22;8462;53.156;8.220;2023-04-03T10:25:40;11.60;39.20
7658;DHT22;8462;53.156;8.220;2023-04-03T10:28:12;11.40;39.70
7658;DHT22;8462;53.156;8.220;2023-04-03T10:30:48;11.50;38.90
7658;DHT22;8462;53.156;8.220;2023-04-03T10:33:44;11.50;40.10
7658;DHT22;8462;53.156;8.220;2023-04-03T10:36:23;11.60;39.50
7658;DHT22;8462;53.156;8.220;2023-04-03T10:38:59;11.70;39.40
7658;DHT22;8462;53.156;8.220;2023-04-03T10:41:38;11.70;39.70
7658;DHT22;8462;53.156;8.220;2023-04-03T10:44:15;11.80;40.30
7658;DHT22;8462;53.156;8.220;2023-04-03T10:46:45;11.80;40.30
7658;DHT22;8462;53.156;8.220;2023-04-03T10:49:25;11.90;40.50
7658;DHT22;8462;53.156;8.220;2023-04-03T10:51:59;11.70;39.40
7658;DHT22;8462;53.156;8.220;2023-04-03T10:54:35;11.60;39.70
7658;DHT22;8462;53.156;8.220;2023-04-03T10:57:04;11.50;39.90
7658;DHT22;8462;53.156;8.220;2023-04-03T10:59:33;11.40;40.20
7658;DHT22;8462;53.156;8.220;2023-04-03T11:02:07;11.50;40.10
7658;DHT22;8462;53.156;8.220;2023-04-03T11:04:39;11.60;40.70
7658;DHT22;8462;53.156;8.220;2023-04-03T11:07:10;11.80;41.00
7658;DHT22;8462;53.156;8.220;2023-04-03T11:09:44;11.90;40.40
7658;DHT22;8462;53.156;8.220;2023-04-03T11:12:18;11.90;38.80
7658;DHT22;8462;53.156;8.220;2023-04-03T11:14:48;11.70;39.50
7658;DHT22;8462;53.156;8.220;2023-04-03T11:17:23;11.70;39.50
7658;DHT22;8462;53.156;8.220;2023-04-03T11:20:00;11.60;39.00
7658;DHT22;8462;53.156;8.220;2023-04-03T11:22:34;11.50;38.90
7658;DHT22;8462;53.156;8.220;2023-04-03T11:25:13;11.40;38.90
7658;DHT22;8462;53.156;8.220;2023-04-03T11:27:49;11.40;39.20
7658;DHT22;8462;53.156;8.220;2023-04-03T11:30:21;11.40;40.30
7658;DHT22;8462;53.156;8.220;2023-04-03T11:32:59;11.40;40.00
7658;DHT22;8462;53.156;8.220;2023-04-03T11:35:29;11.40;39.20
7658;DHT22;8462;53.156;8.220;2023-04-03T11:37:57;11.20;39.60
7658;DHT22;8462;53.156;8.220;2023-04-03T11:40:30;11.10;40.00
7658;DHT22;8462;53.156;8.220;2023-04-03T11:43:06;11.20;39.70
7658;DHT22;8462;53.156;8.220;2023-04-03T11:45:36;11.40;40.40
7658;DHT22;8462;53.156;8.220;2023-04-03T11:48:04;11.40;39.00
7658;DHT22;8462;53.156;8.220;2023-04-03T11:50:43;11.40;39.30
7658;DHT22;8462;53.156;8.220;2023-04-03T11:53:32;11.30;39.00
7658;DHT22;8462;53.156;8.220;2023-04-03T11:56:28;11.30;39.20
7658;DHT22;8462;53.156;8.220;2023-04-03T11:59:23;11.10;39.00
7658;DHT22;8462;53.156;8.220;2023-04-03T12:01:52;11.00;39.30
7658;DHT22;8462;53.156;8.220;2023-04-03T12:04:20;11.00;40.70
7658;DHT22;8462;53.156;8.220;2023-04-03T12:06:58;11.00;40.40
7658;DHT22;8462;53.156;8.220;2023-04-03T12:12:40;11.10;40.30
7658;DHT22;8462;53.156;8.220;2023-04-03T12:21:17;11.10;39.50
7658;DHT22;8462;53.156;8.220;2023-04-03T12:24:02;11.10;40.40
7658;DHT22;8462;53.156;8.220;2023-04-03T12:26:32;11.10;40.00
7658;DHT22;8462;53.156;8.220;2023-04-03T12:29:13;11.20;40.70
7658;DHT22;8462;53.156;8.220;2023-04-03T12:31:48;11.20;40.80
7658;DHT22;8462;53.156;8.220;2023-04-03T12:34:38;11.30;40.60
7658;DHT22;8462;53.156;8.220;2023-04-03T12:37:21;11.40;40.00
7658;DHT22;8462;53.156;8.220;2023-04-03T12:40:00;11.40;40.50
7658;DHT22;8462;53.156;8.220;2023-04-03T12:42:53;11.40;40.30
7658;DHT22;8462;53.156;8.220;2023-04-03T12:45:26;11.30;41.20
7658;DHT22;8462;53.156;8.220;2023-04-03T12:47:54;11.40;40.20
7658;DHT22;8462;53.156;8.220;2023-04-03T12:50:25;11.50;41.00
7658;DHT22;8462;53.156;8.220;2023-04-03T12:52:58;11.40;40.20
7658;DHT22;8462;53.156;8.220;2023-04-03T12:55:26;11.30;40.60
7658;DHT22;8462;53.156;8.220;2023-04-03T12:57:53;11.20;41.00
7658;DHT22;8462;53.156;8.220;2023-04-03T13:00:33;11.20;40.40
7658;DHT22;8462;53.156;8.220;2023-04-03T13:03:01;11.10;40.90
7658;DHT22;8462;53.156;8.220;2023-04-03T13:05:28;11.10;41.10
7658;DHT22;8462;53.156;8.220;2023-04-03T13:07:59;11.20;41.80
7658;DHT22;8462;53.156;8.220;2023-04-03T13:10:27;11.30;41.00
7658;DHT22;8462;53.156;8.220;2023-04-03T13:12:56;11.30;41.00
7658;DHT22;8462;53.156;8.220;2023-04-03T13:15:25;11.30;40.60
7658;DHT22;8462;53.156;8.220;2023-04-03T13:17:54;11.30;40.70
7658;DHT22;8462;53.156;8.220;2023-04-03T13:20:26;11.50;41.30
7658;DHT22;8462;53.156;8.220;2023-04-03T13:22:58;11.70;41.50
7658;DHT22;8462;53.156;8.220;2023-04-03T13:25:28;11.80;40.30
7658;DHT22;8462;53.156;8.220;2023-04-03T13:27:56;11.80;39.20
7658;DHT22;8462;53.156;8.220;2023-04-03T13:30:28;11.60;39.00
7658;DHT22;8462;53.156;8.220;2023-04-03T13:32:58;11.60;39.90
7658;DHT22;8462;53.156;8.220;2023-04-03T13:35:35;11.70;39.30
7658;DHT22;8462;53.156;8.220;2023-04-03T13:38:07;11.70;40.00
7658;DHT22;8462;53.156;8.220;2023-04-03T13:40:48;11.90;39.20
7658;DHT22;8462;53.156;8.220;2023-04-03T13:43:19;12.20;39.30
7658;DHT22;8462;53.156;8.220;2023-04-03T13:45:56;12.40;38.90
7658;DHT22;8462;53.156;8.220;2023-04-03T13:48:25;12.50;38.00
7658;DHT22;8462;53.156;8.220;2023-04-03T13:50:59;12.50;38.50
7658;DHT22;8462;53.156;8.220;2023-04-03T13:53:28;12.20;38.80
7658;DHT22;8462;53.156;8.220;2023-04-03T13:55:59;12.00;39.40
7658;DHT22;8462;53.156;8.220;2023-04-03T13:58:30;11.80;39.30
7658;DHT22;8462;53.156;8.220;2023-04-03T14:01:05;11.70;39.70
7658;DHT22;8462;53.156;8.220;2023-04-03T14:03:43;11.90;39.50
7658;DHT22;8462;53.156;8.220;2023-04-03T14:06:12;12.10;40.00
7658;DHT22;8462;53.156;8.220;2023-04-03T14:08:40;12.10;39.60
7658;DHT22;8462;53.156;8.220;2023-04-03T14:11:11;12.10;39.80
7658;DHT22;8462;53.156;8.220;2023-04-03T14:13:39;12.00;40.70
7658;DHT22;8462;53.156;8.220;2023-04-03T14:16:07;12.10;41.30
7658;DHT22;8462;53.156;8.220;2023-04-03T14:18:35;12.10;40.90
7658;DHT22;8462;53.156;8.220;2023-04-03T14:21:03;12.00;41.10
7658;DHT22;8462;53.156;8.220;2023-04-03T14:23:29;11.90;41.00
7658;DHT22;8462;53.156;8.220;2023-04-03T14:25:57;11.70;40.90
7658;DHT22;8462;53.156;8.220;2023-04-03T14:28:26;11.50;41.20
7658;DHT22;8462;53.156;8.220;2023-04-03T14:30:52;11.30;42.10
7658;DHT22;8462;53.156;8.220;2023-04-03T14:33:21;11.40;42.10
7658;DHT22;8462;53.156;8.220;2023-04-03T14:35:50;11.60;42.60
7658;DHT22;8462;53.156;8.220;2023-04-03T14:38:23;11.90;43.00
7658;DHT22;8462;53.156;8.220;2023-04-03T14:40:54;12.20;42.90
7658;DHT22;8462;53.156;8.220;2023-04-03T14:43:22;12.40;43.10
7658;DHT22;8462;53.156;8.220;2023-04-03T14:45:50;12.50;42.50
7658;DHT22;8462;53.156;8.220;2023-04-03T14:48:19;12.30;42.40
7658;DHT22;8462;53.156;8.220;2023-04-03T14:50:47;11.90;42.60
7658;DHT22;8462;53.156;8.220;2023-04-03T14:53:16;11.60;43.50
7658;DHT22;8462;53.156;8.220;2023-04-03T14:55:45;11.40;44.10
7658;DHT22;8462;53.156;8.220;2023-04-03T14:58:14;11.20;44.00
7658;DHT22;8462;53.156;8.220;2023-04-03T15:00:41;11.30;44.50
7658;DHT22;8462;53.156;8.220;2023-04-03T15:03:13;11.40;45.80
7658;DHT22;8462;53.156;8.220;2023-04-03T15:05:42;11.60;45.70
7658;DHT22;8462;53.156;8.220;2023-04-03T15:08:19;11.90;44.90
7658;DHT22;8462;53.156;8.220;2023-04-03T15:10:48;12.00;44.70
7658;DHT22;8462;53.156;8.220;2023-04-03T15:13:15;12.00;44.30
7658;DHT22;8462;53.156;8.220;2023-04-03T15:15:42;11.90;44.90
7658;DHT22;8462;53.156;8.220;2023-04-03T15:18:17;11.80;45.50
7658;DHT22;8462;53.156;8.220;2023-04-03T15:20:45;11.70;45.20
7658;DHT22;8462;53.156;8.220;2023-04-03T15:23:16;11.60;45.50
7658;DHT22;8462;53.156;8.220;2023-04-03T15:25:46;11.50;45.90
7658;DHT22;8462;53.156;8.220;2023-04-03T15:28:18;11.40;46.50
7658;DHT22;8462;53.156;8.220;2023-04-03T15:30:45;11.40;46.90
7658;DHT22;8462;53.156;8.220;2023-04-03T15:33:13;11.30;46.70
7658;DHT22;8462;53.156;8.220;2023-04-03T15:35:41;11.30;47.50
7658;DHT22;8462;53.156;8.220;2023-04-03T15:38:08;11.30;47.90
7658;DHT22;8462;53.156;8.220;2023-04-03T15:40:36;11.30;48.30
7658;DHT22;8462;53.156;8.220;2023-04-03T15:43:05;11.20;48.30
7658;DHT22;8462;53.156;8.220;2023-04-03T15:45:34;11.30;48.50
7658;DHT22;8462;53.156;8.220;2023-04-03T15:48:01;11.30;48.80
7658;DHT22;8462;53.156;8.220;2023-04-03T15:50:29;11.20;48.90
7658;DHT22;8462;53.156;8.220;2023-04-03T15:52:55;11.20;49.20
7658;DHT22;8462;53.156;8.220;2023-04-03T15:55:25;11.10;49.50
7658;DHT22;8462;53.156;8.220;2023-04-03T15:57:53;11.10;50.40
7658;DHT22;8462;53.156;8.220;2023-04-03T16:00:22;11.00;51.00
7658;DHT22;8462;53.156;8.220;2023-04-03T16:02:52;11.00;51.00
7658;DHT22;8462;53.156;8.220;2023-04-03T16:05:20;11.00;51.70
7658;DHT22;8462;53.156;8.220;2023-04-03T16:07:47;11.00;51.90
7658;DHT22;8462;53.156;8.220;2023-04-03T16:10:16;10.90;52.20
7658;DHT22;8462;53.156;8.220;2023-04-03T16:12:45;10.90;52.80
7658;DHT22;8462;53.156;8.220;2023-04-03T16:15:12;10.90;53.10
7658;DHT22;8462;53.156;8.220;2023-04-03T16:17:41;10.80;53.20
7658;DHT22;8462;53.156;8.220;2023-04-03T16:20:09;10.80;53.40
7658;DHT22;8462;53.156;8.220;2023-04-03T16:22:36;10.70;53.40
7658;DHT22;8462;53.156;8.220;2023-04-03T16:25:05;10.70;54.20
7658;DHT22;8462;53.156;8.220;2023-04-03T16:27:32;10.60;54.20
7658;DHT22;8462;53.156;8.220;2023-04-03T16:29:59;10.60;54.60
7658;DHT22;8462;53.156;8.220;2023-04-03T16:32:30;10.60;54.90
7658;DHT22;8462;53.156;8.220;2023-04-03T16:34:59;10.60;55.00
7658;DHT22;8462;53.156;8.220;2023-04-03T16:37:26;10.60;55.50
7658;DHT22;8462;53.156;8.220;2023-04-03T16:39:53;10.60;56.10